sensor_id;sensor_type;location;lat;lon;timestamp;pressure;altitude;pressure_sealevel;temperature;humidity
18137;BME280;9194;42.632;23.298;2023-02-10T00:02:28;94251.88;;;-8.49;100.00
18137;BME280;9194;42.632;23.298;2023-02-10T00:07:30;94258.09;;;-8.56;100.00
18137;BME280;9194;42.632;23.298;2023-02-10T00:12:31;94259.72;;;-8.55;100.00
18137;BME280;9194;42.632;23.298;2023-02-10T00:17:33;94243.03;;;-8.57;100.00
18137;BME280;9194;42.632;23.298;2023-02-10T00:22:34;94246.03;;;-8.68;100.00
18137;BME280;9194;42.632;23.298;2023-02-10T00:27:35;94242.69;;;-8.68;100.00
18137;BME280;9194;42.632;23.298;2023-02-10T00:32:37;94231.69;;;-8.67;100.00
18137;BME280;9194;42.632;23.298;2023-02-10T00:37:41;94237.72;;;-8.70;100.00
18137;BME280;9194;42.632;23.298;2023-02-10T00:42:42;94229.53;;;-8.75;100.00
18137;BME280;9194;42.632;23.298;2023-02-10T00:47:43;94222.03;;;-8.77;100.00
18137;BME280;9194;42.632;23.298;2023-02-10T00:52:45;94223.78;;;-8.79;100.00
18137;BME280;9194;42.632;23.298;2023-02-10T00:57:47;94222.03;;;-8.77;100.00
18137;BME280;9194;42.632;23.298;2023-02-10T01:02:49;94213.41;;;-8.73;100.00
18137;BME280;9194;42.632;23.298;2023-02-10T01:07:50;94206.88;;;-8.77;100.00
18137;BME280;9194;42.632;23.298;2023-02-10T01:12:53;94207.66;;;-8.75;100.00
18137;BME280;9194;42.632;23.298;2023-02-10T01:17:55;94211.03;;;-8.76;100.00
18137;BME280;9194;42.632;23.298;2023-02-10T01:22:57;94200.34;;;-8.81;100.00
18137;BME280;9194;42.632;23.298;2023-02-10T01:27:59;94192.63;;;-8.78;100.00
18137;BME280;9194;42.632;23.298;2023-02-10T01:33:01;94189.38;;;-8.80;100.00
18137;BME280;9194;42.632;23.298;2023-02-10T01:38:02;94189.44;;;-8.81;100.00
18137;BME280;9194;42.632;23.298;2023-02-10T01:43:13;94183.56;;;-8.82;100.00
18137;BME280;9194;42.632;23.298;2023-02-10T01:48:15;94183.69;;;-8.85;100.00
18137;BME280;9194;42.632;23.298;2023-02-10T01:53:16;94178.53;;;-8.82;100.00
18137;BME280;9194;42.632;23.298;2023-02-10T01:58:21;94172.81;;;-8.85;100.00
18137;BME280;9194;42.632;23.298;2023-02-10T02:03:23;94162.84;;;-8.88;100.00
18137;BME280;9194;42.632;23.298;2023-02-10T02:08:30;94150.88;;;-8.85;100.00
18137;BME280;9194;42.632;23.298;2023-02-10T02:13:40;94148.25;;;-8.82;100.00
18137;BME280;9194;42.632;23.298;2023-02-10T02:34:56;94142.94;;;-8.76;100.00
18137;BME280;9194;42.632;23.298;2023-02-10T02:40:00;94143.19;;;-8.82;100.00
18137;BME280;9194;42.632;23.298;2023-02-10T03:00:57;94140.47;;;-8.96;100.00
18137;BME280;9194;42.632;23.298;2023-02-10T03:06:07;94129.78;;;-9.01;100.00
18137;BME280;9194;42.632;23.298;2023-02-10T03:11:09;94124.13;;;-9.06;100.00
18137;BME280;9194;42.632;23.298;2023-02-10T03:16:11;94132.78;;;-9.11;100.00
18137;BME280;9194;42.632;23.298;2023-02-10T03:21:12;94137.22;;;-9.17;100.00
18137;BME280;9194;42.632;23.298;2023-02-10T03:26:13;94136.41;;;-9.17;100.00
18137;BME280;9194;42.632;23.298;2023-02-10T03:31:15;94135.50;;;-9.16;100.00
18137;BME280;9194;42.632;23.298;2023-02-10T03:36:16;94144.97;;;-9.21;100.00
18137;BME280;9194;42.632;23.298;2023-02-10T03:41:18;94142.13;;;-9.32;100.00
18137;BME280;9194;42.632;23.298;2023-02-10T03:46:20;94121.25;;;-9.36;100.00
18137;BME280;9194;42.632;23.298;2023-02-10T03:51:22;94119.50;;;-9.34;100.00
18137;BME280;9194;42.632;23.298;2023-02-10T03:56:23;94113.34;;;-9.47;100.00
18137;BME280;9194;42.632;23.298;2023-02-10T04:01:25;94115.03;;;-9.47;100.00
18137;BME280;9194;42.632;23.298;2023-02-10T04:06:27;94117.72;;;-9.50;100.00
18137;BME280;9194;42.632;23.298;2023-02-10T04:11:28;94111.63;;;-9.46;100.00
18137;BME280;9194;42.632;23.298;2023-02-10T04:16:30;94103.25;;;-9.47;100.00
18137;BME280;9194;42.632;23.298;2023-02-10T04:21:33;94113.41;;;-9.48;100.00
18137;BME280;9194;42.632;23.298;2023-02-10T04:26:34;94118.84;;;-9.58;100.00
18137;BME280;9194;42.632;23.298;2023-02-10T04:31:35;94121.38;;;-9.58;100.00
18137;BME280;9194;42.632;23.298;2023-02-10T04:36:37;94119.88;;;-9.62;100.00
18137;BME280;9194;42.632;23.298;2023-02-10T04:41:38;94121.47;;;-9.61;100.00
18137;BME280;9194;42.632;23.298;2023-02-10T04:46:40;94115.81;;;-9.66;100.00
18137;BME280;9194;42.632;23.298;2023-02-10T04:51:41;94119.25;;;-9.67;100.00
18137;BME280;9194;42.632;23.298;2023-02-10T04:56:42;94128.44;;;-9.66;100.00
18137;BME280;9194;42.632;23.298;2023-02-10T05:01:44;94123.53;;;-9.69;100.00
18137;BME280;9194;42.632;23.298;2023-02-10T05:06:46;94127.06;;;-9.73;100.00
18137;BME280;9194;42.632;23.298;2023-02-10T05:11:47;94143.31;;;-9.80;100.00
18137;BME280;9194;42.632;23.298;2023-02-10T05:16:48;94149.03;;;-9.76;100.00
18137;BME280;9194;42.632;23.298;2023-02-10T05:21:50;94149.03;;;-9.76;100.00
18137;BME280;9194;42.632;23.298;2023-02-10T05:26:51;94166.56;;;-9.73;100.00
18137;BME280;9194;42.632;23.298;2023-02-10T05:31:53;94171.41;;;-9.69;100.00
18137;BME280;9194;42.632;23.298;2023-02-10T05:36:54;94169.66;;;-9.67;100.00
18137;BME280;9194;42.632;23.298;2023-02-10T05:41:57;94181.06;;;-9.60;100.00
18137;BME280;9194;42.632;23.298;2023-02-10T05:46:59;94185.59;;;-9.47;100.00
18137;BME280;9194;42.632;23.298;2023-02-10T05:52:00;94185.84;;;-9.33;100.00
18137;BME280;9194;42.632;23.298;2023-02-10T05:57:01;94179.41;;;-9.20;100.00
18137;BME280;9194;42.632;23.298;2023-02-10T06:02:03;94179.75;;;-9.09;100.00
18137;BME280;9194;42.632;23.298;2023-02-10T06:07:04;94190.78;;;-8.93;100.00
18137;BME280;9194;42.632;23.298;2023-02-10T06:12:06;94194.22;;;-8.75;100.00
18137;BME280;9194;42.632;23.298;2023-02-10T06:17:07;94191.81;;;-8.59;100.00
18137;BME280;9194;42.632;23.298;2023-02-10T06:22:09;94198.53;;;-8.41;100.00
18137;BME280;9194;42.632;23.298;2023-02-10T06:27:11;94198.31;;;-8.19;100.00
18137;BME280;9194;42.632;23.298;2023-02-10T06:32:12;94209.03;;;-7.97;100.00
18137;BME280;9194;42.632;23.298;2023-02-10T06:37:13;94193.59;;;-7.74;100.00
18137;BME280;9194;42.632;23.298;2023-02-10T06:42:15;94191.00;;;-7.55;100.00
18137;BME280;9194;42.632;23.298;2023-02-10T06:47:16;94197.53;;;-7.34;100.00
18137;BME280;9194;42.632;23.298;2023-02-10T06:52:17;94207.53;;;-7.15;100.00
18137;BME280;9194;42.632;23.298;2023-02-10T06:57:19;94207.25;;;-6.93;100.00
18137;BME280;9194;42.632;23.298;2023-02-10T07:02:20;94216.34;;;-6.74;100.00
18137;BME280;9194;42.632;23.298;2023-02-10T07:07:21;94217.84;;;-6.54;99.95
18137;BME280;9194;42.632;23.298;2023-02-10T07:12:23;94212.63;;;-6.35;99.00
18137;BME280;9194;42.632;23.298;2023-02-10T07:17:26;94206.41;;;-6.14;97.59
18137;BME280;9194;42.632;23.298;2023-02-10T07:22:27;94195.88;;;-5.92;96.09
18137;BME280;9194;42.632;23.298;2023-02-10T07:27:28;94195.09;;;-5.78;94.32
18137;BME280;9194;42.632;23.298;2023-02-10T07:37:33;94190.19;;;-5.52;91.91
18137;BME280;9194;42.632;23.298;2023-02-10T07:42:35;94193.84;;;-5.27;90.82
18137;BME280;9194;42.632;23.298;2023-02-10T07:47:52;94187.50;;;-5.06;89.53
18137;BME280;9194;42.632;23.298;2023-02-10T07:52:53;94184.53;;;-4.99;88.60
18137;BME280;9194;42.632;23.298;2023-02-10T07:57:54;94199.13;;;-4.88;88.17
18137;BME280;9194;42.632;23.298;2023-02-10T08:02:56;94202.03;;;-4.94;88.17
18137;BME280;9194;42.632;23.298;2023-02-10T08:07:57;94212.38;;;-4.69;88.01
18137;BME280;9194;42.632;23.298;2023-02-10T08:12:58;94200.28;;;-4.65;87.67
18137;BME280;9194;42.632;23.298;2023-02-10T08:18:00;94197.22;;;-4.70;86.72
18137;BME280;9194;42.632;23.298;2023-02-10T08:23:01;94188.88;;;-4.58;87.24
18137;BME280;9194;42.632;23.298;2023-02-10T08:28:03;94200.38;;;-4.38;86.71
18137;BME280;9194;42.632;23.298;2023-02-10T08:33:04;94201.81;;;-4.34;85.13
18137;BME280;9194;42.632;23.298;2023-02-10T08:38:06;94203.59;;;-4.22;83.63
18137;BME280;9194;42.632;23.298;2023-02-10T08:43:10;94191.72;;;-4.22;84.17
18137;BME280;9194;42.632;23.298;2023-02-10T08:48:11;94191.25;;;-4.14;83.80
18137;BME280;9194;42.632;23.298;2023-02-10T08:53:12;94192.22;;;-3.90;82.98
18137;BME280;9194;42.632;23.298;2023-02-10T08:58:13;94199.75;;;-3.88;82.41
18137;BME280;9194;42.632;23.298;2023-02-10T09:03:15;94181.84;;;-3.60;81.74
18137;BME280;9194;42.632;23.298;2023-02-10T09:08:17;94188.19;;;-3.40;81.00
18137;BME280;9194;42.632;23.298;2023-02-10T09:13:18;94170.00;;;-3.21;80.49
18137;BME280;9194;42.632;23.298;2023-02-10T09:18:20;94171.81;;;-2.98;78.68
18137;BME280;9194;42.632;23.298;2023-02-10T09:23:21;94166.00;;;-2.87;78.15
18137;BME280;9194;42.632;23.298;2023-02-10T09:28:22;94167.91;;;-2.78;77.49
18137;BME280;9194;42.632;23.298;2023-02-10T09:33:24;94165.03;;;-2.49;76.40
18137;BME280;9194;42.632;23.298;2023-02-10T09:38:25;94171.53;;;-2.44;74.87
18137;BME280;9194;42.632;23.298;2023-02-10T09:54:09;94154.91;;;-2.14;72.49
18137;BME280;9194;42.632;23.298;2023-02-10T09:59:15;94152.72;;;-1.94;73.33
18137;BME280;9194;42.632;23.298;2023-02-10T10:04:21;94146.72;;;-1.82;71.59
18137;BME280;9194;42.632;23.298;2023-02-10T10:09:37;94136.56;;;-1.95;70.35
18137;BME280;9194;42.632;23.298;2023-02-10T10:14:42;94120.91;;;-1.67;70.57
18137;BME280;9194;42.632;23.298;2023-02-10T10:30:53;94101.28;;;-1.09;66.80
18137;BME280;9194;42.632;23.298;2023-02-10T10:35:56;94108.94;;;-0.98;66.47
18137;BME280;9194;42.632;23.298;2023-02-10T10:41:06;94099.06;;;-1.02;64.48
18137;BME280;9194;42.632;23.298;2023-02-10T10:51:33;94092.13;;;-0.89;63.82
18137;BME280;9194;42.632;23.298;2023-02-10T10:56:51;94086.75;;;-0.75;65.08
18137;BME280;9194;42.632;23.298;2023-02-10T11:01:53;94078.13;;;-0.63;63.36
18137;BME280;9194;42.632;23.298;2023-02-10T11:06:56;94070.59;;;-0.53;63.33
18137;BME280;9194;42.632;23.298;2023-02-10T11:12:04;94069.63;;;-0.41;62.76
18137;BME280;9194;42.632;23.298;2023-02-10T11:17:17;94064.56;;;-0.20;62.75
18137;BME280;9194;42.632;23.298;2023-02-10T11:22:20;94052.75;;;-0.32;62.58
18137;BME280;9194;42.632;23.298;2023-02-10T11:27:22;94055.84;;;-0.18;61.84
18137;BME280;9194;42.632;23.298;2023-02-10T11:32:27;94038.31;;;-0.02;61.14
18137;BME280;9194;42.632;23.298;2023-02-10T11:37:37;94045.38;;;0.06;60.78
18137;BME280;9194;42.632;23.298;2023-02-10T11:42:39;94038.88;;;0.02;61.18
18137;BME280;9194;42.632;23.298;2023-02-10T11:47:40;94042.78;;;0.17;61.57
18137;BME280;9194;42.632;23.298;2023-02-10T11:52:42;94039.91;;;0.31;61.43
18137;BME280;9194;42.632;23.298;2023-02-10T11:58:16;94037.03;;;0.46;60.53
18137;BME280;9194;42.632;23.298;2023-02-10T12:03:46;94028.84;;;0.31;60.91
18137;BME280;9194;42.632;23.298;2023-02-10T12:25:22;94007.91;;;0.77;59.00
18137;BME280;9194;42.632;23.298;2023-02-10T12:56:58;93994.19;;;0.88;57.60
18137;BME280;9194;42.632;23.298;2023-02-10T13:02:16;93999.38;;;0.97;57.24
18137;BME280;9194;42.632;23.298;2023-02-10T13:12:31;93992.31;;;0.90;58.83
18137;BME280;9194;42.632;23.298;2023-02-10T13:17:41;93995.97;;;0.87;60.49
18137;BME280;9194;42.632;23.298;2023-02-10T13:33:38;94004.19;;;0.60;63.89
18137;BME280;9194;42.632;23.298;2023-02-10T13:38:42;93999.13;;;0.39;65.44
18137;BME280;9194;42.632;23.298;2023-02-10T13:43:45;94003.41;;;0.18;66.25
18137;BME280;9194;42.632;23.298;2023-02-10T13:48:52;94001.41;;;-0.20;67.96
18137;BME280;9194;42.632;23.298;2023-02-10T13:53:55;93996.75;;;-0.58;70.24
18137;BME280;9194;42.632;23.298;2023-02-10T13:59:03;94003.00;;;-0.82;71.09
18137;BME280;9194;42.632;23.298;2023-02-10T14:09:31;94009.06;;;-1.28;73.52
18137;BME280;9194;42.632;23.298;2023-02-10T14:14:37;94016.41;;;-1.46;74.50
18137;BME280;9194;42.632;23.298;2023-02-10T14:19:40;94015.22;;;-1.64;75.84
18137;BME280;9194;42.632;23.298;2023-02-10T14:24:43;94002.91;;;-1.81;76.90
18137;BME280;9194;42.632;23.298;2023-02-10T14:29:53;94014.94;;;-1.94;77.95
18137;BME280;9194;42.632;23.298;2023-02-10T14:35:03;94001.66;;;-2.11;78.98
18137;BME280;9194;42.632;23.298;2023-02-10T14:40:15;94000.34;;;-2.27;80.19
18137;BME280;9194;42.632;23.298;2023-02-10T14:45:23;94002.97;;;-2.40;81.34
18137;BME280;9194;42.632;23.298;2023-02-10T14:50:44;94003.13;;;-2.54;82.72
18137;BME280;9194;42.632;23.298;2023-02-10T14:55:53;94013.38;;;-2.67;83.79
18137;BME280;9194;42.632;23.298;2023-02-10T15:06:15;94014.50;;;-2.95;85.35
18137;BME280;9194;42.632;23.298;2023-02-10T15:11:24;94021.25;;;-3.06;86.38
18137;BME280;9194;42.632;23.298;2023-02-10T15:16:46;94008.75;;;-3.22;87.53
18137;BME280;9194;42.632;23.298;2023-02-10T15:21:47;94019.16;;;-3.38;88.51
18137;BME280;9194;42.632;23.298;2023-02-10T15:26:51;94022.44;;;-3.48;89.62
18137;BME280;9194;42.632;23.298;2023-02-10T15:31:56;94026.44;;;-3.57;90.11
18137;BME280;9194;42.632;23.298;2023-02-10T15:37:03;94036.59;;;-3.69;89.82
18137;BME280;9194;42.632;23.298;2023-02-10T15:42:20;94038.31;;;-3.83;90.61
18137;BME280;9194;42.632;23.298;2023-02-10T15:47:24;94040.97;;;-3.97;91.95
18137;BME280;9194;42.632;23.298;2023-02-10T15:52:35;94042.28;;;-4.04;92.49
18137;BME280;9194;42.632;23.298;2023-02-10T15:57:39;94047.16;;;-4.13;92.20
18137;BME280;9194;42.632;23.298;2023-02-10T16:02:40;94047.72;;;-4.23;92.76
18137;BME280;9194;42.632;23.298;2023-02-10T16:07:41;94050.75;;;-4.30;92.98
18137;BME280;9194;42.632;23.298;2023-02-10T16:12:44;94060.69;;;-4.40;93.08
18137;BME280;9194;42.632;23.298;2023-02-10T16:17:49;94067.19;;;-4.48;93.30
18137;BME280;9194;42.632;23.298;2023-02-10T16:22:51;94077.72;;;-4.54;93.22
18137;BME280;9194;42.632;23.298;2023-02-10T16:27:53;94081.56;;;-4.62;93.44
18137;BME280;9194;42.632;23.298;2023-02-10T16:32:55;94080.28;;;-4.69;93.20
18137;BME280;9194;42.632;23.298;2023-02-10T16:37:57;94087.53;;;-4.89;94.13
18137;BME280;9194;42.632;23.298;2023-02-10T16:42:59;94093.59;;;-4.92;94.09
18137;BME280;9194;42.632;23.298;2023-02-10T16:48:01;94093.34;;;-5.02;94.79
18137;BME280;9194;42.632;23.298;2023-02-10T16:53:03;94096.41;;;-4.97;95.23
18137;BME280;9194;42.632;23.298;2023-02-10T16:58:14;94105.38;;;-4.91;94.34
18137;BME280;9194;42.632;23.298;2023-02-10T17:03:15;94100.47;;;-4.94;94.31
18137;BME280;9194;42.632;23.298;2023-02-10T17:08:17;94105.09;;;-5.01;94.02
18137;BME280;9194;42.632;23.298;2023-02-10T17:13:18;94103.53;;;-4.89;94.32
18137;BME280;9194;42.632;23.298;2023-02-10T17:18:20;94100.09;;;-4.88;94.21
18137;BME280;9194;42.632;23.298;2023-02-10T17:23:22;94096.38;;;-4.82;93.66
18137;BME280;9194;42.632;23.298;2023-02-10T17:28:23;94108.16;;;-4.81;92.88
18137;BME280;9194;42.632;23.298;2023-02-10T17:33:27;94107.63;;;-4.86;92.18
18137;BME280;9194;42.632;23.298;2023-02-10T17:38:28;94113.44;;;-4.84;91.72
18137;BME280;9194;42.632;23.298;2023-02-10T17:43:45;94125.31;;;-4.85;91.28
18137;BME280;9194;42.632;23.298;2023-02-10T17:48:46;94117.34;;;-4.93;90.73
18137;BME280;9194;42.632;23.298;2023-02-10T17:53:49;94125.69;;;-5.05;90.84
18137;BME280;9194;42.632;23.298;2023-02-10T17:58:51;94128.22;;;-5.05;91.88
18137;BME280;9194;42.632;23.298;2023-02-10T18:03:54;94127.31;;;-5.04;92.26
18137;BME280;9194;42.632;23.298;2023-02-10T18:08:57;94129.31;;;-5.09;91.97
18137;BME280;9194;42.632;23.298;2023-02-10T18:14:00;94126.53;;;-5.19;91.86
18137;BME280;9194;42.632;23.298;2023-02-10T18:19:02;94133.66;;;-5.11;94.52
18137;BME280;9194;42.632;23.298;2023-02-10T18:24:03;94135.75;;;-5.18;93.60
18137;BME280;9194;42.632;23.298;2023-02-10T18:29:05;94132.59;;;-5.21;93.95
18137;BME280;9194;42.632;23.298;2023-02-10T18:34:06;94138.56;;;-5.22;93.26
18137;BME280;9194;42.632;23.298;2023-02-10T18:39:08;94145.28;;;-5.21;92.53
18137;BME280;9194;42.632;23.298;2023-02-10T18:44:10;94139.00;;;-5.30;92.06
18137;BME280;9194;42.632;23.298;2023-02-10T18:49:11;94150.19;;;-5.18;91.79
18137;BME280;9194;42.632;23.298;2023-02-10T18:54:13;94155.81;;;-5.13;91.99
18137;BME280;9194;42.632;23.298;2023-02-10T18:59:14;94156.16;;;-5.19;90.51
18137;BME280;9194;42.632;23.298;2023-02-10T19:04:16;94156.69;;;-5.28;90.46
18137;BME280;9194;42.632;23.298;2023-02-10T19:09:17;94158.75;;;-5.35;90.54
18137;BME280;9194;42.632;23.298;2023-02-10T19:14:19;94169.94;;;-5.38;89.80
18137;BME280;9194;42.632;23.298;2023-02-10T19:19:20;94158.22;;;-5.40;88.46
18137;BME280;9194;42.632;23.298;2023-02-10T19:24:21;94170.09;;;-5.41;87.94
18137;BME280;9194;42.632;23.298;2023-02-10T19:29:23;94172.63;;;-5.41;87.79
18137;BME280;9194;42.632;23.298;2023-02-10T19:34:24;94174.25;;;-5.40;88.04
18137;BME280;9194;42.632;23.298;2023-02-10T19:39:26;94170.19;;;-4.71;88.50
18137;BME280;9194;42.632;23.298;2023-02-10T19:44:27;94159.94;;;-4.29;84.76
18137;BME280;9194;42.632;23.298;2023-02-10T19:49:28;94163.59;;;-4.33;84.64
18137;BME280;9194;42.632;23.298;2023-02-10T19:54:29;94166.00;;;-3.90;81.07
18137;BME280;9194;42.632;23.298;2023-02-10T19:59:31;94166.69;;;-3.49;77.82
18137;BME280;9194;42.632;23.298;2023-02-10T20:04:32;94157.94;;;-3.57;77.10
18137;BME280;9194;42.632;23.298;2023-02-10T20:09:37;94163.03;;;-3.57;78.13
18137;BME280;9194;42.632;23.298;2023-02-10T20:14:40;94168.63;;;-3.52;77.86
18137;BME280;9194;42.632;23.298;2023-02-10T20:19:41;94162.22;;;-3.45;77.04
18137;BME280;9194;42.632;23.298;2023-02-10T20:24:42;94157.94;;;-2.94;74.99
18137;BME280;9194;42.632;23.298;2023-02-10T20:29:44;94158.38;;;-2.87;73.50
18137;BME280;9194;42.632;23.298;2023-02-10T20:34:45;94163.84;;;-2.68;73.22
18137;BME280;9194;42.632;23.298;2023-02-10T20:39:48;94168.72;;;-2.78;73.47
18137;BME280;9194;42.632;23.298;2023-02-10T20:44:49;94158.38;;;-2.87;72.86
18137;BME280;9194;42.632;23.298;2023-02-10T20:49:50;94151.44;;;-3.11;76.56
18137;BME280;9194;42.632;23.298;2023-02-10T20:54:52;94157.34;;;-2.98;75.03
18137;BME280;9194;42.632;23.298;2023-02-10T20:59:53;94160.78;;;-2.73;75.08
18137;BME280;9194;42.632;23.298;2023-02-10T21:04:54;94168.31;;;-2.84;76.38
18137;BME280;9194;42.632;23.298;2023-02-10T21:09:56;94156.81;;;-2.90;77.60
18137;BME280;9194;42.632;23.298;2023-02-10T21:14:58;94153.78;;;-3.08;78.44
18137;BME280;9194;42.632;23.298;2023-02-10T21:19:59;94147.56;;;-3.16;79.40
18137;BME280;9194;42.632;23.298;2023-02-10T21:25:02;94152.88;;;-3.32;80.63
18137;BME280;9194;42.632;23.298;2023-02-10T21:30:09;94153.88;;;-3.47;81.82
18137;BME280;9194;42.632;23.298;2023-02-10T21:35:11;94152.97;;;-3.34;81.47
18137;BME280;9194;42.632;23.298;2023-02-10T21:40:12;94139.41;;;-3.47;81.61
18137;BME280;9194;42.632;23.298;2023-02-10T21:45:13;94129.81;;;-3.68;80.97
18137;BME280;9194;42.632;23.298;2023-02-10T21:50:15;94142.00;;;-4.40;79.58
18137;BME280;9194;42.632;23.298;2023-02-10T21:55:17;94158.13;;;-4.82;81.28
18137;BME280;9194;42.632;23.298;2023-02-10T22:00:18;94160.69;;;-4.82;83.82
18137;BME280;9194;42.632;23.298;2023-02-10T22:05:19;94158.66;;;-4.48;84.41
18137;BME280;9194;42.632;23.298;2023-02-10T22:10:21;94152.16;;;-4.13;83.80
18137;BME280;9194;42.632;23.298;2023-02-10T22:15:22;94151.09;;;-3.69;84.05
18137;BME280;9194;42.632;23.298;2023-02-10T22:20:23;94152.22;;;-3.61;84.02
18137;BME280;9194;42.632;23.298;2023-02-10T22:25:25;94147.63;;;-3.68;85.12
18137;BME280;9194;42.632;23.298;2023-02-10T22:30:26;94146.75;;;-3.42;83.74
18137;BME280;9194;42.632;23.298;2023-02-10T22:35:27;94141.25;;;-3.36;82.71
18137;BME280;9194;42.632;23.298;2023-02-10T22:40:29;94151.84;;;-3.29;82.45
18137;BME280;9194;42.632;23.298;2023-02-10T22:45:30;94154.06;;;-3.25;81.94
18137;BME280;9194;42.632;23.298;2023-02-10T22:50:31;94146.25;;;-3.35;81.92
18137;BME280;9194;42.632;23.298;2023-02-10T22:55:33;94142.56;;;-3.56;82.93
18137;BME280;9194;42.632;23.298;2023-02-10T23:00:34;94139.81;;;-3.53;83.21
18137;BME280;9194;42.632;23.298;2023-02-10T23:05:40;94133.31;;;-3.57;82.48
18137;BME280;9194;42.632;23.298;2023-02-10T23:10:41;94139.81;;;-3.40;81.67
18137;BME280;9194;42.632;23.298;2023-02-10T23:15:42;94127.19;;;-3.04;79.92
18137;BME280;9194;42.632;23.298;2023-02-10T23:20:43;94134.34;;;-3.34;80.05
18137;BME280;9194;42.632;23.298;2023-02-10T23:25:50;94127.06;;;-3.65;82.16
18137;BME280;9194;42.632;23.298;2023-02-10T23:30:52;94126.81;;;-3.88;83.36
18137;BME280;9194;42.632;23.298;2023-02-10T23:35:53;94134.28;;;-3.72;81.98
18137;BME280;9194;42.632;23.298;2023-02-10T23:40:56;94139.66;;;-3.77;81.72
18137;BME280;9194;42.632;23.298;2023-02-10T23:45:57;94135.16;;;-3.98;82.58
18137;BME280;9194;42.632;23.298;2023-02-10T23:51:04;94127.69;;;-4.01;83.07
18137;BME280;9194;42.632;23.298;2023-02-10T23:56:06;94128.56;;;-3.88;82.19
